Aviation Digital Data Service (ADDS)

Output produced by METARs form (1954 UTC 28 April 2017)
found at http://aviationweather.gov/adds/metars/
 
KFKL 281725Z 2818/2918 21008G15KT P6SM BKN250 
     FM290000 15004KT P6SM BKN250 
     FM290300 11005KT P6SM VCSH OVC100 
     FM290900 20005KT P6SM VCSH OVC015 
     FM291200 24005KT 5SM -SHRA OVC008 AMD LTD TO CLD VIS AND WIND